| time (UTC) | temp C | wind direction | speed KPH | gust KPH | rain 1hr cm | rain 24hr cm | rain mn cm | humidity % | barometer mb |
| 20260508044504 | 12 | 0 | 0.0 | 0.0 | 0.00 | 0.94 | 0.00 | 92 | 1013.6 |
| 20260508043604 | 12 | 0 | 0.0 | 0.0 | 0.00 | 1.04 | 0.00 | 92 | 1013.6 |
| 20260508042703 | 12 | 0 | 0.0 | 0.0 | 0.00 | 1.09 | 0.00 | 92 | 1013.8 |
| 20260508041825 | 12 | 0 | 0.0 | 0.0 | 0.00 | 1.19 | 0.00 | 92 | 1013.8 |
| 20260508040904 | 12 | 0 | 0.0 | 0.0 | 0.00 | 1.32 | 0.00 | 92 | 1013.8 |
| 20260508040025 | 12 | 0 | 0.0 | 0.0 | 0.00 | 1.32 | 0.00 | 92 | 1013.7 |
| 20260508035404 | 13 | 0 | 0.0 | 0.0 | 0.00 | 1.32 | 1.32 | 92 | 1013.6 |
| 20260508034525 | 12 | 0 | 0.0 | 0.0 | 0.00 | 1.32 | 1.32 | 92 | 1013.5 |
| 20260508033604 | 12 | 0 | 0.0 | 0.0 | 0.00 | 1.32 | 1.32 | 92 | 1013.2 |
| 20260508032704 | 13 | 0 | 0.0 | 0.0 | 0.00 | 1.35 | 1.32 | 91 | 1013.0 |
| 20260508031804 | 12 | 0 | 0.0 | 0.0 | 0.00 | 1.35 | 1.32 | 91 | 1013.1 |
| 20260508030903 | 13 | 0 | 0.0 | 0.0 | 0.00 | 1.35 | 1.32 | 91 | 1013.1 |
| 20260508030025 | 13 | 0 | 0.0 | 0.0 | 0.00 | 1.35 | 1.32 | 90 | 1013.0 |
| 20260508025403 | 13 | 0 | 0.0 | 0.0 | 0.00 | 1.35 | 1.32 | 90 | 1012.9 |
| 20260508024504 | 13 | 0 | 0.0 | 0.0 | 0.00 | 1.37 | 1.32 | 90 | 1012.9 |
| 20260508023603 | 13 | 0 | 0.0 | 0.0 | 0.00 | 1.37 | 1.32 | 90 | 1012.8 |
| 20260508022725 | 13 | 0 | 0.0 | 0.0 | 0.00 | 1.37 | 1.32 | 90 | 1012.8 |
| 20260508021803 | 13 | 0 | 0.0 | 0.0 | 0.00 | 1.37 | 1.32 | 90 | 1012.6 |
| 20260508020904 | 13 | 0 | 0.0 | 0.0 | 0.00 | 1.37 | 1.32 | 90 | 1012.6 |
| 20260508020004 | 13 | 0 | 0.0 | 0.0 | 0.00 | 1.37 | 1.32 | 90 | 1012.4 |
| 20260508015403 | 13 | 0 | 0.0 | 0.0 | 0.00 | 1.37 | 1.32 | 90 | 1012.4 |
| 20260508014524 | 13 | 0 | 0.0 | 0.0 | 0.00 | 1.37 | 1.32 | 90 | 1012.4 |
| 20260508013603 | 13 | 0 | 0.0 | 0.0 | 0.00 | 1.37 | 1.32 | 90 | 1012.1 |
| 20260508012703 | 13 | 0 | 0.0 | 0.0 | 0.00 | 1.37 | 1.32 | 90 | 1011.6 |
| 20260508011803 | 13 | 0 | 0.0 | 0.0 | 0.00 | 1.37 | 1.32 | 89 | 1011.5 |
| 20260508010924 | 13 | 0 | 0.0 | 0.0 | 0.00 | 1.37 | 1.32 | 89 | 1011.5 |
| 20260508010004 | 13 | 0 | 0.0 | 0.0 | 0.00 | 1.37 | 1.32 | 89 | 1011.7 |
| 20260508005403 | 13 | 0 | 0.0 | 0.0 | 0.00 | 1.37 | 1.32 | 89 | 1011.9 |
| 20260508004503 | 13 | 0 | 0.0 | 0.0 | 0.00 | 1.37 | 1.32 | 89 | 1011.8 |
| 20260508003603 | 13 | 0 | 0.0 | 6.4 | 0.00 | 1.37 | 1.32 | 89 | 1011.3 |
| 20260508002703 | 13 | 0 | 0.0 | 6.4 | 0.00 | 1.37 | 1.32 | 89 | 1011.2 |
| 20260508001803 | 13 | 0 | 0.0 | 3.2 | 0.00 | 1.37 | 1.32 | 89 | 1011.2 |
| 20260508000924 | 13 | 0 | 0.0 | 3.2 | 0.00 | 1.37 | 1.32 | 89 | 1011.3 |
| 20260508000003 | 13 | 0 | 0.0 | 3.2 | 0.00 | 1.37 | 1.32 | 89 | 1011.1 |
| 20260507235424 | 13 | 0 | 0.0 | 6.4 | 0.00 | 1.37 | 1.32 | 89 | 1011.0 |
| 20260507234503 | 13 | 0 | 0.0 | 6.4 | 0.00 | 1.37 | 1.32 | 89 | 1010.7 |
| 20260507233603 | 13 | 0 | 0.0 | 3.2 | 0.00 | 1.37 | 1.32 | 89 | 1010.6 |
| 20260507232703 | 13 | 0 | 0.0 | 12.9 | 0.00 | 1.37 | 1.32 | 89 | 1010.5 |
| 20260507231803 | 13 | 0 | 0.0 | 3.2 | 0.00 | 1.37 | 1.32 | 89 | 1010.3 |
| 20260507230903 | 13 | 0 | 0.0 | 9.7 | 0.00 | 1.37 | 1.32 | 89 | 1010.2 |
| 20260507230024 | 13 | 0 | 0.0 | 9.7 | 0.00 | 1.37 | 1.32 | 88 | 1010.2 |
| 20260507225403 | 13 | 0 | 0.0 | 6.4 | 0.00 | 1.37 | 1.32 | 89 | 1010.2 |
| 20260507224504 | 13 | 67 | 4.8 | 9.7 | 0.00 | 1.37 | 1.32 | 88 | 1010.0 |
| 20260507223603 | 13 | 0 | 0.0 | 9.7 | 0.00 | 1.37 | 1.32 | 89 | 1010.0 |
| 20260507222703 | 13 | 62 | 4.8 | 16.1 | 0.00 | 1.37 | 1.32 | 88 | 1010.0 |
| 20260507221803 | 13 | 0 | 0.0 | 9.7 | 0.00 | 1.37 | 1.32 | 89 | 1009.8 |
| 20260507220904 | 13 | 0 | 0.0 | 12.9 | 0.00 | 1.37 | 1.32 | 90 | 1009.9 |
| 20260507220004 | 13 | 0 | 0.0 | 6.4 | 0.00 | 1.37 | 1.32 | 90 | 1010.1 |
| 20260507215424 | 13 | 0 | 0.0 | 6.4 | 0.00 | 1.37 | 1.32 | 90 | 1010.4 |
| 20260507214503 | 13 | 0 | 0.0 | 6.4 | 0.00 | 1.37 | 1.32 | 90 | 1010.2 |
| 20260507213603 | 13 | 66 | 4.8 | 12.9 | 0.00 | 1.37 | 1.32 | 90 | 1010.0 |
| 20260507212703 | 13 | 0 | 0.0 | 6.4 | 0.00 | 1.37 | 1.32 | 90 | 1010.0 |
| 20260507211803 | 13 | 0 | 0.0 | 12.9 | 0.00 | 1.37 | 1.32 | 90 | 1009.9 |
| 20260507210903 | 13 | 63 | 4.8 | 16.1 | 0.00 | 1.37 | 1.32 | 90 | 1009.8 |
| 20260507210024 | 13 | 67 | 4.8 | 19.3 | 0.00 | 1.37 | 1.32 | 90 | 1009.8 |
| 20260507205403 | 13 | 72 | 4.8 | 16.1 | 0.00 | 1.37 | 1.32 | 90 | 1009.6 |
| 20260507204504 | 13 | 68 | 4.8 | 16.1 | 0.00 | 1.37 | 1.32 | 90 | 1009.5 |
| 20260507203603 | 13 | 60 | 4.8 | 25.7 | 0.00 | 1.37 | 1.32 | 90 | 1009.5 |
| 20260507202703 | 14 | 90 | 4.8 | 25.7 | 0.00 | 1.37 | 1.32 | 90 | 1009.3 |
| 20260507201803 | 14 | 0 | 0.0 | 12.9 | 0.00 | 1.37 | 1.32 | 90 | 1009.4 |
| 20260507200903 | 14 | 67 | 4.8 | 19.3 | 0.00 | 1.37 | 1.32 | 91 | 1009.3 |
| 20260507200003 | 14 | 0 | 0.0 | 9.7 | 0.00 | 1.37 | 1.32 | 92 | 1009.4 |
| 20260507195424 | 14 | 84 | 4.8 | 16.1 | 0.00 | 1.37 | 1.32 | 92 | 1009.4 |
| 20260507194503 | 14 | 0 | 0.0 | 9.7 | 0.00 | 1.37 | 1.32 | 92 | 1009.3 |
| 20260507193603 | 14 | 0 | 0.0 | 9.7 | 0.00 | 1.37 | 1.32 | 92 | 1009.1 |
| 20260507192703 | 14 | 0 | 0.0 | 9.7 | 0.00 | 1.37 | 1.32 | 92 | 1009.3 |
| 20260507191803 | 14 | 63 | 4.8 | 19.3 | 0.03 | 1.37 | 1.32 | 92 | 1009.3 |
| 20260507190903 | 14 | 81 | 4.8 | 12.9 | 0.05 | 1.45 | 1.32 | 92 | 1009.6 |
| 20260507190004 | 14 | 67 | 4.8 | 19.3 | 0.05 | 1.57 | 1.32 | 92 | 1009.6 |
| 20260507185403 | 14 | 74 | 4.8 | 16.1 | 0.05 | 1.57 | 1.32 | 92 | 1009.5 |
| 20260507184504 | 14 | 61 | 4.8 | 16.1 | 0.05 | 1.63 | 1.32 | 92 | 1008.9 |
| 20260507183603 | 14 | 61 | 4.8 | 19.3 | 0.08 | 1.78 | 1.32 | 93 | 1008.7 |
| 20260507182703 | 15 | 68 | 4.8 | 19.3 | 0.10 | 1.91 | 1.32 | 92 | 1009.5 |
| 20260507181803 | 15 | 0 | 0.0 | 9.7 | 0.08 | 1.88 | 1.30 | 92 | 1009.3 |
| 20260507180924 | 15 | 0 | 0.0 | 12.9 | 0.05 | 1.85 | 1.30 | 92 | 1008.9 |
| 20260507180003 | 15 | 66 | 4.8 | 19.3 | 0.05 | 1.85 | 1.27 | 92 | 1008.8 |
| 20260507175424 | 15 | 0 | 0.0 | 9.7 | 0.05 | 1.85 | 1.27 | 92 | 1008.8 |
| 20260507174524 | 15 | 79 | 4.8 | 9.7 | 0.05 | 1.85 | 1.27 | 91 | 1009.0 |
| 20260507173603 | 16 | 0 | 0.0 | 6.4 | 0.03 | 1.83 | 1.22 | 89 | 1009.8 |
| 20260507172703 | 17 | 73 | 4.8 | 16.1 | 0.00 | 1.78 | 1.19 | 87 | 1009.1 |
| 20260507171803 | 20 | 0 | 0.0 | 16.1 | 0.03 | 1.78 | 1.19 | 89 | 1008.1 |
| 20260507170903 | 20 | 0 | 0.0 | 0.0 | 0.05 | 1.78 | 1.19 | 93 | 1008.1 |
| 20260507170003 | 20 | 0 | 0.0 | 6.4 | 0.08 | 1.78 | 1.19 | 92 | 1007.7 |
| 20260507165424 | 20 | 0 | 0.0 | 6.4 | 0.10 | 1.78 | 1.19 | 92 | 1008.0 |
| 20260507164503 | 21 | 0 | 0.0 | 0.0 | 0.10 | 1.78 | 1.19 | 94 | 1008.0 |
| 20260507163603 | 20 | 0 | 0.0 | 0.0 | 0.10 | 1.78 | 1.19 | 94 | 1008.0 |
| 20260507162703 | 20 | 0 | 0.0 | 0.0 | 0.10 | 1.78 | 1.19 | 94 | 1008.6 |
| 20260507161803 | 20 | 0 | 0.0 | 0.0 | 0.08 | 1.75 | 1.17 | 94 | 1009.2 |
| 20260507160903 | 20 | 0 | 0.0 | 0.0 | 0.08 | 1.73 | 1.14 | 95 | 1009.4 |
| 20260507160024 | 20 | 0 | 0.0 | 0.0 | 0.05 | 1.70 | 1.12 | 95 | 1009.5 |
| 20260507155403 | 20 | 0 | 0.0 | 0.0 | 0.03 | 1.68 | 1.09 | 95 | 1009.5 |
| 20260507154524 | 20 | 0 | 0.0 | 0.0 | 0.05 | 1.68 | 1.09 | 95 | 1009.5 |
| 20260507153603 | 20 | 0 | 0.0 | 3.2 | 0.05 | 1.68 | 1.09 | 95 | 1009.3 |
| 20260507152703 | 20 | 0 | 0.0 | 3.2 | 0.08 | 1.68 | 1.09 | 95 | 1008.8 |
| 20260507151803 | 20 | 0 | 0.0 | 3.2 | 0.10 | 1.68 | 1.09 | 95 | 1009.1 |
| 20260507150924 | 20 | 0 | 0.0 | 3.2 | 0.15 | 1.65 | 1.07 | 96 | 1009.2 |
| 20260507150003 | 20 | 0 | 0.0 | 3.2 | 0.15 | 1.65 | 1.07 | 96 | 1009.3 |
| 20260507145403 | 20 | 0 | 0.0 | 3.2 | 0.15 | 1.65 | 1.07 | 95 | 1009.2 |
| 20260507144503 | 20 | 0 | 0.0 | 9.7 | 0.15 | 1.63 | 1.04 | 95 | 1009.4 |
| 20260507143603 | 20 | 0 | 0.0 | 0.0 | 0.15 | 1.63 | 1.04 | 95 | 1009.5 |
| 20260507142724 | 20 | 0 | 0.0 | 0.0 | 0.15 | 1.60 | 1.02 | 95 | 1009.5 |
| 20260507141805 | 20 | 0 | 0.0 | 0.0 | 0.15 | 1.57 | 0.99 | 95 | 1009.4 |
| 20260507140905 | 20 | 0 | 0.0 | 0.0 | 0.10 | 1.50 | 0.91 | 95 | 1009.3 |
| 20260507140006 | 20 | 0 | 0.0 | 0.0 | 0.15 | 1.50 | 0.91 | 96 | 1009.4 |
| 20260507135405 | 20 | 0 | 0.0 | 0.0 | 0.15 | 1.50 | 0.91 | 96 | 1009.5 |
| 20260507134505 | 20 | 0 | 0.0 | 0.0 | 0.10 | 1.47 | 0.89 | 96 | 1009.8 |
| 20260507133626 | 19 | 0 | 0.0 | 0.0 | 0.10 | 1.47 | 0.89 | 96 | 1010.0 |
| 20260507132705 | 19 | 0 | 0.0 | 0.0 | 0.08 | 1.45 | 0.86 | 95 | 1009.9 |
| 20260507131805 | 19 | 0 | 0.0 | 0.0 | 0.05 | 1.42 | 0.84 | 96 | 1010.0 |
| 20260507130005 | 19 | 0 | 0.0 | 0.0 | 0.00 | 1.37 | 0.79 | 96 | 1009.9 |
| 20260507125405 | 19 | 0 | 0.0 | 0.0 | 0.00 | 1.37 | 0.79 | 96 | 1009.9 |
| 20260507124505 | 19 | 0 | 0.0 | 0.0 | 0.00 | 1.37 | 0.79 | 96 | 1009.9 |
| 20260507123605 | 19 | 0 | 0.0 | 0.0 | 0.00 | 1.37 | 0.79 | 96 | 1009.9 |
| 20260507122706 | 19 | 0 | 0.0 | 0.0 | 0.00 | 1.37 | 0.79 | 96 | 1009.9 |
| 20260507121826 | 18 | 0 | 0.0 | 0.0 | 0.00 | 1.37 | 0.79 | 96 | 1009.8 |
| 20260507120905 | 18 | 0 | 0.0 | 0.0 | 0.00 | 1.37 | 0.79 | 96 | 1009.7 |
| 20260507120005 | 18 | 0 | 0.0 | 0.0 | 0.00 | 1.37 | 0.79 | 95 | 1010.0 |
| 20260507115405 | 18 | 0 | 0.0 | 0.0 | 0.00 | 1.37 | 0.79 | 96 | 1010.1 |
| 20260507114505 | 18 | 0 | 0.0 | 3.2 | 0.00 | 1.37 | 0.79 | 95 | 1009.9 |
| 20260507113605 | 18 | 0 | 0.0 | 3.2 | 0.00 | 1.37 | 0.79 | 95 | 1010.3 |
| 20260507112705 | 18 | 0 | 0.0 | 3.2 | 0.00 | 1.37 | 0.79 | 95 | 1010.2 |
| 20260507111805 | 18 | 0 | 0.0 | 0.0 | 0.03 | 1.37 | 0.79 | 95 | 1010.3 |
| 20260507110905 | 18 | 0 | 0.0 | 0.0 | 0.03 | 1.37 | 0.79 | 95 | 1010.2 |
| 20260507110005 | 18 | 0 | 0.0 | 0.0 | 0.03 | 1.37 | 0.79 | 95 | 1010.3 |
| 20260507105405 | 18 | 0 | 0.0 | 0.0 | 0.03 | 1.37 | 0.79 | 95 | 1010.3 |
| 20260507104505 | 18 | 0 | 0.0 | 6.4 | 0.03 | 1.37 | 0.79 | 95 | 1009.8 |
| 20260507103605 | 18 | 0 | 0.0 | 6.4 | 0.05 | 1.37 | 0.79 | 95 | 1009.7 |
| 20260507102705 | 18 | 0 | 0.0 | 0.0 | 0.05 | 1.37 | 0.79 | 95 | 1010.0 |
| 20260507101805 | 18 | 0 | 0.0 | 3.2 | 0.03 | 1.35 | 0.76 | 95 | 1009.8 |
| 20260507100905 | 18 | 0 | 0.0 | 3.2 | 0.03 | 1.35 | 0.76 | 95 | 1009.8 |
| 20260507100005 | 18 | 0 | 0.0 | 0.0 | 0.03 | 1.35 | 0.76 | 95 | 1009.9 |
| 20260507095405 | 18 | 0 | 0.0 | 0.0 | 0.05 | 1.35 | 0.76 | 95 | 1009.9 |
| 20260507094526 | 18 | 0 | 0.0 | 3.2 | 0.05 | 1.35 | 0.76 | 95 | 1009.8 |
| 20260507093605 | 18 | 0 | 0.0 | 3.2 | 0.03 | 1.32 | 0.74 | 95 | 1009.9 |
| 20260507092705 | 18 | 0 | 0.0 | 0.0 | 0.03 | 1.32 | 0.74 | 95 | 1010.1 |
| 20260507091805 | 17 | 0 | 0.0 | 0.0 | 0.03 | 1.32 | 0.74 | 95 | 1009.8 |
| 20260507090905 | 18 | 0 | 0.0 | 0.0 | 0.03 | 1.32 | 0.74 | 95 | 1009.9 |
| 20260507090006 | 18 | 0 | 0.0 | 0.0 | 0.03 | 1.32 | 0.74 | 95 | 1010.0 |
| 20260507085426 | 18 | 0 | 0.0 | 0.0 | 0.03 | 1.30 | 0.71 | 95 | 1010.0 |
| 20260507084505 | 18 | 0 | 0.0 | 3.2 | 0.03 | 1.30 | 0.71 | 94 | 1009.9 |
| 20260507083605 | 18 | 0 | 0.0 | 0.0 | 0.08 | 1.30 | 0.71 | 94 | 1010.2 |
| 20260507082705 | 18 | 0 | 0.0 | 0.0 | 0.10 | 1.30 | 0.71 | 94 | 1010.4 |
| 20260507081805 | 18 | 0 | 0.0 | 0.0 | 0.15 | 1.30 | 0.71 | 94 | 1010.8 |
| 20260507080905 | 18 | 0 | 0.0 | 0.0 | 0.15 | 1.30 | 0.71 | 94 | 1010.9 |
| 20260507080005 | 18 | 0 | 0.0 | 0.0 | 0.15 | 1.30 | 0.71 | 94 | 1010.7 |
| 20260507075405 | 18 | 0 | 0.0 | 0.0 | 0.10 | 1.27 | 0.66 | 94 | 1010.3 |
| 20260507074504 | 18 | 0 | 0.0 | 0.0 | 0.10 | 1.27 | 0.66 | 94 | 1010.2 |
| 20260507073605 | 18 | 0 | 0.0 | 0.0 | 0.05 | 1.19 | 0.61 | 94 | 1010.6 |
| 20260507072705 | 18 | 0 | 0.0 | 0.0 | 0.03 | 1.17 | 0.58 | 94 | 1011.2 |
| 20260507071805 | 18 | 0 | 0.0 | 0.0 | 0.00 | 1.14 | 0.56 | 94 | 1011.2 |
| 20260507070925 | 18 | 0 | 0.0 | 0.0 | 0.00 | 1.14 | 0.56 | 94 | 1011.1 |
| 20260507070009 | 18 | 0 | 0.0 | 0.0 | 0.00 | 1.14 | 0.56 | 94 | 1011.5 |
| 20260507065404 | 18 | 0 | 0.0 | 0.0 | 0.00 | 1.14 | 0.56 | 94 | 1010.7 |
| 20260507064505 | 18 | 0 | 0.0 | 0.0 | 0.00 | 1.14 | 0.56 | 94 | 1011.4 |
| 20260507063604 | 18 | 0 | 0.0 | 0.0 | 0.00 | 1.14 | 0.56 | 94 | 1011.4 |
| 20260507062704 | 18 | 0 | 0.0 | 0.0 | 0.00 | 1.14 | 0.56 | 94 | 1011.6 |
| 20260507061805 | 18 | 0 | 0.0 | 0.0 | 0.00 | 1.14 | 0.56 | 93 | 1011.8 |
| 20260507060905 | 18 | 0 | 0.0 | 0.0 | 0.00 | 1.14 | 0.56 | 93 | 1011.6 |
| 20260507060005 | 18 | 0 | 0.0 | 0.0 | 0.05 | 1.14 | 0.56 | 93 | 1011.8 |
| 20260507055405 | 18 | 0 | 0.0 | 0.0 | 0.18 | 1.14 | 0.56 | 93 | 1011.9 |
| 20260507054504 | 18 | 0 | 0.0 | 0.0 | 0.25 | 1.14 | 0.56 | 93 | 1012.2 |
| 20260507053604 | 18 | 0 | 0.0 | 0.0 | 0.33 | 1.14 | 0.56 | 93 | 1012.1 |
| 20260507052705 | 18 | 0 | 0.0 | 0.0 | 0.36 | 1.14 | 0.56 | 93 | 1011.3 |
| 20260507051804 | 18 | 0 | 0.0 | 0.0 | 0.48 | 1.14 | 0.56 | 92 | 1010.8 |
| 20260507050904 | 18 | 0 | 0.0 | 3.2 | 0.56 | 1.14 | 0.56 | 92 | 1011.0 |
| 20260507050006 | 18 | 0 | 0.0 | 6.4 | 0.51 | 1.09 | 0.51 | 92 | 1011.8 |
| 20260507045404 | 19 | 0 | 0.0 | 3.2 | 0.38 | 0.99 | 0.38 | 91 | 1012.5 |